createdAt,value
2022-11-07T00:01:23.424Z,13.11
2022-11-07T00:03:53.563Z,13.18
2022-11-07T00:06:20.139Z,13.17
2022-11-07T00:08:46.641Z,13.19
2022-11-07T00:11:13.178Z,13.20
2022-11-07T00:13:39.639Z,13.22
2022-11-07T00:16:08.296Z,13.22
2022-11-07T00:18:35.313Z,13.25
2022-11-07T00:21:07.377Z,13.25
2022-11-07T00:23:34.342Z,13.28
2022-11-07T00:26:09.877Z,13.26
2022-11-07T00:28:38.492Z,13.31
2022-11-07T00:31:06.297Z,13.33
2022-11-07T00:33:33.258Z,13.36
2022-11-07T00:35:59.939Z,13.37
2022-11-07T00:38:26.687Z,13.39
2022-11-07T00:40:58.000Z,13.39
2022-11-07T00:43:24.659Z,13.43
2022-11-07T00:45:51.503Z,13.45
2022-11-07T00:48:18.250Z,13.46
2022-11-07T00:50:45.012Z,13.47
2022-11-07T00:53:11.761Z,13.49
2022-11-07T00:55:38.581Z,13.50
2022-11-07T00:58:08.646Z,13.50
2022-11-07T01:00:39.271Z,13.53
2022-11-07T01:03:24.400Z,13.52
2022-11-07T01:06:02.857Z,13.52
2022-11-07T01:08:30.271Z,13.55
2022-11-07T01:10:57.885Z,13.57
2022-11-07T01:13:25.169Z,13.58
2022-11-07T01:15:52.170Z,13.58
2022-11-07T01:18:18.792Z,13.59
2022-11-07T01:20:45.404Z,13.60
2022-11-07T01:23:12.074Z,13.61
2022-11-07T01:25:39.568Z,13.61
2022-11-07T01:28:07.140Z,13.62
2022-11-07T01:30:34.181Z,13.62
2022-11-07T01:33:00.733Z,13.64
2022-11-07T01:35:27.221Z,13.64
2022-11-07T01:37:53.775Z,13.65
2022-11-07T01:40:20.422Z,13.65
2022-11-07T01:42:47.057Z,13.65
2022-11-07T01:45:19.693Z,13.64
2022-11-07T01:47:46.544Z,13.66
2022-11-07T01:50:13.295Z,13.65
2022-11-07T01:52:43.792Z,13.64
2022-11-07T01:55:19.593Z,13.64
2022-11-07T01:57:57.357Z,13.62
2022-11-07T02:00:25.146Z,13.65
2022-11-07T02:02:57.814Z,13.65
2022-11-07T02:05:47.520Z,13.63
2022-11-07T02:08:15.516Z,13.66
2022-11-07T02:10:43.483Z,13.66
2022-11-07T02:13:13.546Z,13.66
2022-11-07T02:15:40.542Z,13.66
2022-11-07T02:18:07.365Z,13.66
2022-11-07T02:20:34.466Z,13.66
2022-11-07T02:23:08.510Z,13.64
2022-11-07T02:25:36.072Z,13.68
2022-11-07T02:28:07.064Z,13.66
2022-11-07T02:30:34.713Z,13.67
2022-11-07T02:33:02.309Z,13.67
2022-11-07T02:35:34.951Z,13.66
2022-11-07T02:38:03.385Z,13.67
2022-11-07T02:40:30.768Z,13.69
2022-11-07T02:42:59.491Z,13.68
2022-11-07T02:45:35.860Z,13.67
2022-11-07T02:48:03.054Z,13.70
2022-11-07T02:50:29.675Z,13.71
2022-11-07T02:52:56.238Z,13.71
2022-11-07T02:55:22.844Z,13.71
2022-11-07T02:57:49.437Z,13.72
2022-11-07T03:00:16.243Z,13.72
2022-11-07T03:02:49.977Z,13.71
2022-11-07T03:05:18.316Z,13.72
2022-11-07T03:07:47.188Z,13.72
2022-11-07T03:10:15.913Z,13.74
2022-11-07T03:12:42.740Z,13.74
2022-11-07T03:15:10.601Z,13.72
2022-11-07T03:17:37.468Z,13.73
2022-11-07T03:20:04.399Z,13.73
2022-11-07T03:22:30.862Z,13.72
2022-11-07T03:24:57.446Z,13.73
2022-11-07T03:27:24.023Z,13.73
2022-11-07T03:29:50.651Z,13.73
2022-11-07T03:32:17.400Z,13.74
2022-11-07T03:34:43.842Z,13.76
2022-11-07T03:37:10.437Z,13.76
2022-11-07T03:39:36.905Z,13.78
2022-11-07T03:42:03.680Z,13.79
2022-11-07T03:44:30.258Z,13.81
2022-11-07T03:46:56.788Z,13.82
2022-11-07T03:49:23.318Z,13.85
2022-11-07T03:51:49.846Z,13.86
2022-11-07T03:54:16.414Z,13.86
2022-11-07T03:56:42.991Z,13.87
2022-11-07T03:59:09.540Z,13.88
2022-11-07T04:01:36.156Z,13.89
2022-11-07T04:04:02.813Z,13.90
2022-11-07T04:06:29.304Z,13.91
2022-11-07T04:08:55.791Z,13.93
2022-11-07T04:11:40.778Z,13.94
2022-11-07T04:14:26.482Z,13.94
2022-11-07T04:17:11.295Z,13.95
2022-11-07T04:19:37.836Z,13.96
2022-11-07T04:22:04.338Z,13.96
2022-11-07T04:24:30.958Z,13.94
2022-11-07T04:27:15.914Z,13.94
2022-11-07T04:37:11.486Z,13.99
2022-11-07T04:39:37.984Z,13.98
2022-11-07T04:42:04.536Z,13.99
2022-11-07T04:44:31.063Z,13.98
2022-11-07T04:46:57.634Z,13.98
2022-11-07T04:49:24.148Z,13.98
2022-11-07T04:51:55.997Z,13.97
2022-11-07T04:54:22.463Z,13.99
2022-11-07T04:56:48.926Z,13.99
2022-11-07T04:59:15.503Z,13.99
2022-11-07T05:01:42.034Z,13.99
2022-11-07T05:04:08.563Z,13.99
2022-11-07T05:06:36.573Z,13.98
2022-11-07T05:09:03.430Z,13.98
2022-11-07T05:11:29.962Z,13.99
2022-11-07T05:13:56.524Z,13.99
2022-11-07T05:16:23.098Z,14.00
2022-11-07T05:18:49.540Z,14.00
2022-11-07T05:21:16.028Z,14.00
2022-11-07T05:23:42.584Z,14.01
2022-11-07T05:26:09.604Z,14.01
2022-11-07T05:28:39.516Z,14.01
2022-11-07T05:31:07.652Z,14.01
2022-11-07T05:33:34.510Z,14.01
2022-11-07T05:36:14.394Z,13.99
2022-11-07T05:38:42.578Z,14.03
2022-11-07T05:41:09.373Z,14.03
2022-11-07T05:43:37.507Z,14.03
2022-11-07T05:46:04.689Z,14.03
2022-11-07T05:48:31.245Z,14.03
2022-11-07T05:50:58.197Z,14.03
2022-11-07T05:53:25.635Z,14.03
2022-11-07T05:55:53.124Z,14.03
2022-11-07T05:58:20.759Z,14.02
2022-11-07T06:00:48.163Z,14.03
2022-11-07T06:03:15.506Z,14.01
2022-11-07T06:05:43.270Z,14.01
2022-11-07T06:08:11.688Z,14.00
2022-11-07T06:10:39.732Z,14.01
2022-11-07T06:13:08.701Z,14.00
2022-11-07T06:15:36.677Z,14.00
2022-11-07T06:18:05.652Z,14.00
2022-11-07T06:20:33.366Z,13.99
2022-11-07T06:23:03.609Z,13.99
2022-11-07T06:25:30.716Z,13.97
2022-11-07T06:28:02.139Z,13.97
2022-11-07T06:30:28.967Z,13.99
2022-11-07T06:32:55.611Z,13.99
2022-11-07T06:35:22.420Z,13.98
2022-11-07T06:37:48.883Z,13.99
2022-11-07T06:40:15.408Z,13.98
2022-11-07T06:42:41.851Z,13.99
2022-11-07T06:45:08.698Z,13.98
2022-11-07T06:47:35.244Z,13.99
2022-11-07T06:50:01.714Z,14.00
2022-11-07T06:52:28.673Z,13.99
2022-11-07T06:54:55.213Z,13.98
2022-11-07T06:57:21.745Z,13.99
2022-11-07T06:59:51.777Z,13.98
2022-11-07T07:02:37.276Z,13.99
2022-11-07T07:05:05.428Z,13.99
2022-11-07T07:07:32.084Z,14.00
2022-11-07T07:09:58.566Z,14.00
2022-11-07T07:12:26.543Z,13.99
2022-11-07T07:14:53.049Z,13.99
2022-11-07T07:17:19.489Z,14.00
2022-11-07T07:19:45.994Z,14.00
2022-11-07T07:22:13.941Z,13.99
2022-11-07T07:24:40.445Z,13.99
2022-11-07T07:27:07.206Z,14.00
2022-11-07T07:29:33.703Z,14.00
2022-11-07T07:32:00.094Z,14.00
2022-11-07T07:34:26.632Z,13.99
2022-11-07T07:36:54.192Z,14.01
2022-11-07T07:39:20.674Z,14.00
2022-11-07T07:41:49.343Z,14.02
2022-11-07T07:44:15.816Z,14.02
2022-11-07T07:46:42.266Z,14.02
2022-11-07T07:49:09.237Z,14.03
2022-11-07T07:51:35.936Z,14.05
2022-11-07T07:54:02.448Z,14.06
2022-11-07T07:56:28.829Z,14.06
2022-11-07T07:58:55.441Z,14.07
2022-11-07T08:01:22.030Z,14.08
2022-11-07T08:04:01.250Z,14.08
2022-11-07T08:06:29.721Z,14.10
2022-11-07T08:08:56.298Z,14.12
2022-11-07T08:11:22.823Z,14.13
2022-11-07T08:13:49.213Z,14.15
2022-11-07T08:16:15.854Z,14.15
2022-11-07T08:18:42.307Z,14.18
2022-11-07T08:21:09.274Z,14.20
2022-11-07T08:23:36.641Z,14.22
2022-11-07T08:26:04.818Z,14.24
2022-11-07T08:28:33.920Z,14.26
2022-11-07T08:31:09.790Z,14.27
2022-11-07T08:33:36.714Z,14.33
2022-11-07T08:36:04.789Z,14.35
2022-11-07T08:38:34.232Z,14.37
2022-11-07T08:41:01.023Z,14.39
2022-11-07T08:43:27.442Z,14.42
2022-11-07T08:45:54.876Z,14.42
2022-11-07T08:48:22.031Z,14.45
2022-11-07T08:50:56.114Z,14.45
2022-11-07T08:53:23.458Z,14.51
2022-11-07T08:55:50.271Z,14.54
2022-11-07T08:58:16.870Z,14.57
2022-11-07T09:00:43.437Z,14.57
2022-11-07T09:05:58.509Z,14.62
2022-11-07T09:08:25.540Z,14.64
2022-11-07T09:10:51.955Z,14.66
2022-11-07T09:13:20.735Z,14.66
2022-11-07T09:15:50.969Z,14.69
2022-11-07T09:18:18.759Z,14.70
2022-11-07T09:20:45.408Z,14.70
2022-11-07T09:23:11.977Z,14.70
2022-11-07T09:25:38.392Z,14.72
2022-11-07T09:28:05.281Z,14.72
2022-11-07T09:30:32.185Z,14.72
2022-11-07T09:32:59.045Z,14.71
2022-11-07T09:35:25.585Z,14.72
2022-11-07T09:37:52.535Z,14.73
2022-11-07T09:40:50.054Z,14.69
2022-11-07T09:43:33.126Z,14.71
2022-11-07T09:46:02.674Z,14.77
2022-11-07T09:48:39.014Z,14.75
2022-11-07T09:51:13.003Z,14.79
2022-11-07T09:53:45.143Z,14.80
2022-11-07T09:56:13.117Z,14.87
2022-11-07T09:58:45.399Z,14.89
2022-11-07T10:01:15.886Z,14.97
2022-11-07T10:03:58.072Z,15.03
2022-11-07T10:06:38.056Z,15.08
2022-11-07T10:09:23.773Z,15.13
2022-11-07T10:11:59.590Z,15.18
2022-11-07T10:14:54.221Z,15.21
2022-11-07T10:17:53.841Z,15.27
2022-11-07T10:20:42.335Z,15.34
2022-11-07T10:23:41.187Z,15.37
2022-11-07T10:26:12.713Z,15.44
2022-11-07T10:28:57.654Z,15.47
2022-11-07T10:31:27.405Z,15.56
2022-11-07T10:34:01.969Z,15.57
2022-11-07T10:38:57.018Z,15.67
2022-11-07T10:41:28.621Z,15.71
2022-11-07T10:44:02.406Z,15.77
2022-11-07T10:46:38.618Z,15.83
2022-11-07T10:49:17.142Z,15.88
2022-11-07T10:51:44.174Z,15.96
2022-11-07T10:54:40.299Z,15.93
2022-11-07T10:57:09.569Z,15.99
2022-11-07T10:59:54.526Z,15.96
2022-11-07T11:02:23.952Z,15.99
2022-11-07T11:04:52.364Z,15.97
2022-11-07T11:07:21.850Z,15.98
2022-11-07T11:09:59.884Z,15.93
2022-11-07T11:12:34.489Z,15.96
2022-11-07T11:15:10.461Z,15.96
2022-11-07T11:17:37.429Z,16.00
2022-11-07T11:20:06.156Z,16.01
2022-11-07T11:22:42.144Z,16.01
2022-11-07T11:25:11.462Z,16.03
2022-11-07T11:27:38.659Z,16.04
2022-11-07T11:30:08.189Z,16.05
2022-11-07T11:32:52.675Z,16.02
2022-11-07T11:35:28.527Z,16.04
2022-11-07T11:38:14.074Z,16.03
2022-11-07T11:40:44.889Z,16.08
2022-11-07T11:43:11.260Z,16.10
2022-11-07T11:45:40.848Z,16.10
2022-11-07T11:48:21.679Z,16.09
2022-11-07T11:51:00.099Z,16.08
2022-11-07T11:53:28.157Z,16.12
2022-11-07T11:56:17.500Z,16.11
2022-11-07T11:59:00.151Z,16.14
2022-11-07T12:01:38.252Z,16.17
2022-11-07T12:04:19.528Z,16.17
2022-11-07T12:06:47.048Z,16.22
2022-11-07T12:09:27.596Z,16.21
2022-11-07T12:12:18.498Z,16.23
2022-11-07T12:14:57.590Z,16.25
2022-11-07T12:17:37.950Z,16.27
2022-11-07T12:20:12.059Z,16.31
2022-11-07T12:23:00.316Z,16.30
2022-11-07T12:25:49.557Z,16.32
2022-11-07T12:28:30.986Z,16.35
2022-11-07T12:31:28.077Z,16.37
2022-11-07T12:34:20.733Z,16.40
2022-11-07T12:36:53.161Z,16.42
2022-11-07T12:39:38.107Z,16.45
2022-11-07T12:42:19.838Z,16.41
2022-11-07T12:45:07.641Z,16.37
2022-11-07T12:47:34.122Z,16.36
2022-11-07T12:50:16.299Z,16.30
2022-11-07T12:53:06.225Z,16.26
2022-11-07T12:55:55.626Z,16.23
2022-11-07T12:58:30.482Z,16.25
2022-11-07T13:00:57.856Z,16.25
2022-11-07T13:03:30.700Z,16.24
2022-11-07T13:06:03.042Z,16.21
2022-11-07T13:08:54.669Z,16.18
2022-11-07T13:11:48.651Z,16.15
2022-11-07T13:14:39.091Z,16.15
2022-11-07T13:17:08.576Z,16.15
2022-11-07T13:19:41.377Z,16.15
2022-11-07T13:22:21.568Z,16.11
2022-11-07T13:25:09.419Z,16.08
2022-11-07T13:27:41.752Z,16.10
2022-11-07T13:30:14.426Z,16.06
2022-11-07T13:32:47.468Z,16.05
2022-11-07T13:35:22.922Z,16.04
2022-11-07T13:37:57.089Z,16.04
2022-11-07T13:40:27.638Z,16.02
2022-11-07T13:42:58.691Z,16.00
2022-11-07T13:45:30.877Z,15.98
2022-11-07T13:48:03.348Z,15.98
2022-11-07T13:50:44.260Z,15.96
2022-11-07T13:53:51.747Z,15.95
2022-11-07T13:56:30.047Z,15.99
2022-11-07T13:58:58.032Z,16.03
2022-11-07T14:01:24.745Z,16.03
2022-11-07T14:03:51.358Z,16.03
2022-11-07T14:06:18.088Z,16.04
2022-11-07T14:08:46.978Z,16.05
2022-11-07T14:11:16.037Z,16.04
2022-11-07T14:13:42.954Z,16.06
2022-11-07T14:16:26.254Z,16.02
2022-11-07T14:18:56.117Z,16.06
2022-11-07T14:21:26.676Z,16.12
2022-11-07T14:23:53.370Z,16.13
2022-11-07T14:26:24.276Z,16.10
2022-11-07T14:28:51.327Z,16.12
2022-11-07T14:31:33.611Z,16.08
2022-11-07T14:34:21.264Z,16.06
2022-11-07T14:36:53.913Z,16.08
2022-11-07T14:39:22.581Z,16.11
2022-11-07T14:41:49.986Z,16.11
2022-11-07T14:44:20.268Z,16.09
2022-11-07T14:46:47.385Z,16.10
2022-11-07T14:49:24.353Z,16.06
2022-11-07T14:51:52.684Z,16.10
2022-11-07T14:54:21.703Z,16.10
2022-11-07T14:56:54.411Z,16.09
2022-11-07T14:59:24.229Z,16.09
2022-11-07T15:02:21.957Z,16.06
2022-11-07T15:04:50.266Z,16.11
2022-11-07T15:07:30.028Z,16.12
2022-11-07T15:09:59.505Z,16.11
2022-11-07T15:12:29.369Z,16.10
2022-11-07T15:15:06.723Z,16.07
2022-11-07T15:17:40.066Z,16.09
2022-11-07T15:20:07.438Z,16.11
2022-11-07T15:22:43.004Z,16.07
2022-11-07T15:25:28.414Z,16.06
2022-11-07T15:27:55.511Z,16.11
2022-11-07T15:30:30.219Z,16.07
2022-11-07T15:32:57.178Z,16.10
2022-11-07T15:35:44.183Z,16.10
2022-11-07T15:38:22.446Z,16.07
2022-11-07T15:40:49.493Z,16.10
2022-11-07T15:43:16.040Z,16.10
2022-11-07T15:45:43.358Z,16.11
2022-11-07T15:48:16.640Z,16.07
2022-11-07T15:50:45.004Z,16.10
2022-11-07T15:53:29.955Z,16.06
2022-11-07T15:55:59.567Z,16.11
2022-11-07T15:58:28.743Z,16.12
2022-11-07T16:00:56.576Z,16.12
2022-11-07T16:03:25.255Z,16.12
2022-11-07T16:05:54.547Z,16.13
2022-11-07T16:08:23.905Z,16.13
2022-11-07T16:10:53.415Z,16.14
2022-11-07T16:13:20.215Z,16.14
2022-11-07T16:15:50.531Z,16.14
2022-11-07T16:18:20.489Z,16.13
2022-11-07T16:20:48.229Z,16.14
2022-11-07T16:23:16.057Z,16.15
2022-11-07T16:25:45.198Z,16.16
2022-11-07T16:28:47.197Z,16.10
2022-11-07T16:31:13.691Z,16.16
2022-11-07T16:33:40.266Z,16.16
2022-11-07T16:36:25.313Z,16.12
2022-11-07T16:38:52.287Z,16.18
2022-11-07T16:41:19.228Z,16.19
2022-11-07T16:43:46.888Z,16.19
2022-11-07T16:46:15.972Z,16.19
2022-11-07T16:48:43.285Z,16.20
2022-11-07T16:51:18.344Z,16.17
2022-11-07T16:53:45.333Z,16.20
2022-11-07T16:56:23.616Z,16.18
2022-11-07T16:58:50.673Z,16.19
2022-11-07T17:01:17.224Z,16.18
2022-11-07T17:03:43.852Z,16.18
2022-11-07T17:06:18.503Z,16.14
2022-11-07T17:08:45.184Z,16.16
2022-11-07T17:11:16.581Z,16.12
2022-11-07T17:13:44.680Z,16.13
2022-11-07T17:16:19.891Z,16.11
2022-11-07T17:18:47.122Z,16.11
2022-11-07T17:21:25.954Z,16.05
2022-11-07T17:23:54.111Z,16.08
2022-11-07T17:26:26.069Z,16.07
2022-11-07T17:28:52.972Z,16.09
2022-11-07T17:31:20.075Z,16.09
2022-11-07T17:33:46.777Z,16.10
2022-11-07T17:36:23.539Z,16.05
2022-11-07T17:38:51.281Z,16.08
2022-11-07T17:41:18.047Z,16.08
2022-11-07T17:43:47.564Z,16.07
2022-11-07T17:46:20.868Z,16.05
2022-11-07T17:48:48.099Z,16.08
2022-11-07T17:51:14.879Z,16.08
2022-11-07T17:53:43.104Z,16.07
2022-11-07T17:56:17.194Z,16.05
2022-11-07T17:58:45.331Z,16.07
2022-11-07T18:01:23.297Z,16.04
2022-11-07T18:03:51.832Z,16.05
2022-11-07T18:06:23.287Z,16.05
2022-11-07T18:08:55.800Z,16.02
2022-11-07T18:11:24.975Z,16.05
2022-11-07T18:13:53.101Z,16.04
2022-11-07T18:16:29.141Z,16.01
2022-11-07T18:18:58.046Z,16.03
2022-11-07T18:21:25.093Z,16.03
2022-11-07T18:23:51.777Z,16.02
2022-11-07T18:26:21.284Z,15.99
2022-11-07T18:28:51.275Z,15.99
2022-11-07T18:31:20.429Z,15.98
2022-11-07T18:33:47.831Z,15.96
2022-11-07T18:36:17.833Z,15.96
2022-11-07T18:38:47.536Z,15.95
2022-11-07T18:41:17.585Z,15.95
2022-11-07T18:43:44.218Z,15.94
2022-11-07T18:46:14.946Z,15.94
2022-11-07T18:48:42.127Z,15.93
2022-11-07T18:51:17.773Z,15.92
2022-11-07T18:53:44.449Z,15.94
2022-11-07T18:56:12.916Z,15.93
2022-11-07T18:58:41.329Z,15.95
2022-11-07T19:01:12.411Z,15.93
2022-11-07T19:03:40.389Z,15.96
2022-11-07T19:06:09.134Z,15.95
2022-11-07T19:08:38.206Z,15.95
2022-11-07T19:11:07.826Z,15.98
2022-11-07T19:13:39.227Z,15.98
2022-11-07T19:16:08.191Z,15.98
2022-11-07T19:18:35.428Z,15.98
2022-11-07T19:21:03.843Z,15.99
2022-11-07T19:23:30.869Z,15.98
2022-11-07T19:25:57.513Z,15.96
2022-11-07T19:28:24.093Z,15.96
2022-11-07T19:30:50.597Z,15.95
2022-11-07T19:33:17.529Z,15.95
2022-11-07T19:35:44.302Z,15.93
2022-11-07T19:38:13.416Z,15.92
2022-11-07T19:40:41.392Z,15.92
2022-11-07T19:43:09.465Z,15.93
2022-11-07T19:45:41.356Z,15.91
2022-11-07T19:48:08.346Z,15.93
2022-11-07T19:50:34.884Z,15.93
2022-11-07T19:53:01.465Z,15.92
2022-11-07T19:55:27.953Z,15.92
2022-11-07T19:57:54.605Z,15.94
2022-11-07T20:00:21.263Z,15.94
2022-11-07T20:02:48.430Z,15.94
2022-11-07T20:05:23.974Z,15.95
2022-11-07T20:07:55.351Z,15.95
2022-11-07T20:10:23.992Z,15.95
2022-11-07T20:12:50.879Z,16.00
2022-11-07T20:15:17.851Z,15.99
2022-11-07T20:17:44.531Z,15.98
2022-11-07T20:20:13.707Z,15.97
2022-11-07T20:22:46.255Z,15.96
2022-11-07T20:25:13.583Z,15.96
2022-11-07T20:27:40.227Z,15.97
2022-11-07T20:30:07.533Z,15.96
2022-11-07T20:32:34.125Z,15.96
2022-11-07T20:35:00.766Z,15.95
2022-11-07T20:37:27.310Z,15.96
2022-11-07T20:39:54.026Z,15.95
2022-11-07T20:42:20.558Z,15.96
2022-11-07T20:44:48.900Z,15.96
2022-11-07T20:47:15.480Z,15.96
2022-11-07T20:49:42.045Z,15.96
2022-11-07T20:52:08.608Z,15.97
2022-11-07T20:54:36.152Z,15.97
2022-11-07T20:57:03.697Z,15.97
2022-11-07T20:59:31.586Z,15.99
2022-11-07T21:02:02.999Z,16.00
2022-11-07T21:04:44.556Z,16.01
2022-11-07T21:07:19.651Z,16.04
2022-11-07T21:09:46.422Z,16.03
2022-11-07T21:12:13.208Z,16.03
2022-11-07T21:14:41.622Z,16.04
2022-11-07T21:17:09.333Z,16.04
2022-11-07T21:19:35.891Z,16.04
2022-11-07T21:22:04.193Z,16.05
2022-11-07T21:24:31.092Z,16.06
2022-11-07T21:26:57.917Z,16.07
2022-11-07T21:29:29.259Z,16.07
2022-11-07T21:31:56.934Z,16.08
2022-11-07T21:34:23.606Z,16.08
2022-11-07T21:36:50.374Z,16.10
2022-11-07T21:39:17.434Z,16.11
2022-11-07T21:41:44.179Z,16.10
2022-11-07T21:44:12.543Z,16.10
2022-11-07T21:46:39.230Z,16.11
2022-11-07T21:49:06.386Z,16.11
2022-11-07T21:51:34.721Z,16.10
2022-11-07T21:54:03.609Z,16.10
2022-11-07T21:56:31.987Z,16.10
2022-11-07T21:59:00.931Z,16.11
2022-11-07T22:01:28.419Z,16.12
2022-11-07T22:04:11.819Z,16.11
2022-11-07T22:06:41.267Z,16.10
2022-11-07T22:09:09.548Z,16.07
2022-11-07T22:11:36.392Z,16.05
2022-11-07T22:14:03.570Z,16.00
2022-11-07T22:16:30.295Z,15.97
2022-11-07T22:18:59.005Z,15.94
2022-11-07T22:21:25.697Z,15.93
2022-11-07T22:23:52.197Z,15.90
2022-11-07T22:26:23.994Z,15.86
2022-11-07T22:28:51.262Z,15.88
2022-11-07T22:31:23.832Z,15.85
2022-11-07T22:33:51.661Z,15.85
2022-11-07T22:36:19.044Z,15.84
2022-11-07T22:38:45.549Z,15.84
2022-11-07T22:41:21.321Z,15.80
2022-11-07T22:43:48.366Z,15.82
2022-11-07T22:46:18.099Z,15.81
2022-11-07T22:48:45.859Z,15.81
2022-11-07T22:51:21.418Z,15.79
2022-11-07T22:53:48.568Z,15.79
2022-11-07T22:56:19.232Z,15.76
2022-11-07T22:58:47.161Z,15.75
2022-11-07T23:01:15.583Z,15.74
2022-11-07T23:03:42.215Z,15.73
2022-11-07T23:06:08.988Z,15.72
2022-11-07T23:08:36.286Z,15.70
2022-11-07T23:11:44.205Z,15.66
2022-11-07T23:14:00.385Z,15.66
2022-11-07T23:16:35.750Z,15.62
2022-11-07T23:19:06.010Z,15.60
2022-11-07T23:21:33.078Z,15.59
2022-11-07T23:24:00.547Z,15.57
2022-11-07T23:26:35.219Z,15.53
2022-11-07T23:29:10.758Z,15.52
2022-11-07T23:31:42.608Z,15.49
2022-11-07T23:34:09.323Z,15.46
2022-11-07T23:36:36.471Z,15.41
2022-11-07T23:39:05.372Z,15.36
2022-11-07T23:41:31.932Z,15.33
2022-11-07T23:43:59.333Z,15.31
2022-11-07T23:46:44.525Z,15.28
2022-11-07T23:49:29.960Z,15.23
2022-11-07T23:51:56.540Z,15.19
2022-11-07T23:54:41.646Z,15.15
2022-11-07T23:57:08.123Z,15.11
2022-11-07T23:59:54.344Z,15.07
